sensor_id;sensor_type;location;lat;lon;timestamp;P1;durP1;ratioP1;P2;durP2;ratioP2
71777;SDS011;59609;52.430;4.668;2023-04-06T00:01:26;28.60;;;13.00;;
71777;SDS011;59609;52.430;4.668;2023-04-06T00:03:52;29.55;;;12.88;;
71777;SDS011;59609;52.430;4.668;2023-04-06T00:06:17;32.63;;;13.75;;
71777;SDS011;59609;52.430;4.668;2023-04-06T00:08:42;29.25;;;12.98;;
71777;SDS011;59609;52.430;4.668;2023-04-06T00:11:09;29.50;;;13.50;;
71777;SDS011;59609;52.430;4.668;2023-04-06T00:13:35;32.88;;;13.48;;
71777;SDS011;59609;52.430;4.668;2023-04-06T00:16:00;31.67;;;13.70;;
71777;SDS011;59609;52.430;4.668;2023-04-06T00:18:26;26.90;;;11.98;;
71777;SDS011;59609;52.430;4.668;2023-04-06T00:20:51;29.75;;;12.85;;
71777;SDS011;59609;52.430;4.668;2023-04-06T00:23:17;30.98;;;13.80;;
71777;SDS011;59609;52.430;4.668;2023-04-06T00:25:42;28.02;;;13.40;;
71777;SDS011;59609;52.430;4.668;2023-04-06T00:28:07;29.92;;;13.13;;
71777;SDS011;59609;52.430;4.668;2023-04-06T00:30:33;24.05;;;12.52;;
71777;SDS011;59609;52.430;4.668;2023-04-06T00:32:58;27.25;;;12.45;;
71777;SDS011;59609;52.430;4.668;2023-04-06T00:35:24;28.63;;;11.73;;
71777;SDS011;59609;52.430;4.668;2023-04-06T00:37:49;27.10;;;12.80;;
71777;SDS011;59609;52.430;4.668;2023-04-06T00:40:14;25.20;;;11.73;;
71777;SDS011;59609;52.430;4.668;2023-04-06T00:42:40;25.23;;;11.90;;
71777;SDS011;59609;52.430;4.668;2023-04-06T00:45:06;26.30;;;11.52;;
71777;SDS011;59609;52.430;4.668;2023-04-06T00:47:32;25.20;;;11.85;;
71777;SDS011;59609;52.430;4.668;2023-04-06T00:50:00;25.10;;;11.85;;
71777;SDS011;59609;52.430;4.668;2023-04-06T00:52:25;25.92;;;10.77;;
71777;SDS011;59609;52.430;4.668;2023-04-06T00:54:51;24.63;;;11.70;;
71777;SDS011;59609;52.430;4.668;2023-04-06T00:57:16;22.40;;;11.43;;
71777;SDS011;59609;52.430;4.668;2023-04-06T00:59:43;23.73;;;11.70;;
71777;SDS011;59609;52.430;4.668;2023-04-06T01:02:09;27.25;;;10.73;;
71777;SDS011;59609;52.430;4.668;2023-04-06T01:04:34;25.55;;;12.30;;
71777;SDS011;59609;52.430;4.668;2023-04-06T01:07:00;24.23;;;11.45;;
71777;SDS011;59609;52.430;4.668;2023-04-06T01:09:29;23.40;;;11.80;;
71777;SDS011;59609;52.430;4.668;2023-04-06T01:11:55;22.77;;;11.30;;
71777;SDS011;59609;52.430;4.668;2023-04-06T01:14:21;23.42;;;11.55;;
71777;SDS011;59609;52.430;4.668;2023-04-06T01:16:47;23.80;;;10.82;;
71777;SDS011;59609;52.430;4.668;2023-04-06T01:19:13;22.80;;;10.95;;
71777;SDS011;59609;52.430;4.668;2023-04-06T01:21:39;22.98;;;10.98;;
71777;SDS011;59609;52.430;4.668;2023-04-06T01:24:05;22.45;;;10.90;;
71777;SDS011;59609;52.430;4.668;2023-04-06T01:26:32;20.63;;;10.73;;
71777;SDS011;59609;52.430;4.668;2023-04-06T01:28:58;19.95;;;11.02;;
71777;SDS011;59609;52.430;4.668;2023-04-06T01:31:23;22.95;;;10.63;;
71777;SDS011;59609;52.430;4.668;2023-04-06T01:33:49;23.13;;;10.90;;
71777;SDS011;59609;52.430;4.668;2023-04-06T01:36:15;21.77;;;10.68;;
71777;SDS011;59609;52.430;4.668;2023-04-06T01:38:41;21.20;;;9.80;;
71777;SDS011;59609;52.430;4.668;2023-04-06T01:41:06;19.83;;;9.82;;
71777;SDS011;59609;52.430;4.668;2023-04-06T01:43:32;21.95;;;9.82;;
71777;SDS011;59609;52.430;4.668;2023-04-06T01:45:58;20.50;;;9.50;;
71777;SDS011;59609;52.430;4.668;2023-04-06T01:48:23;19.88;;;9.43;;
71777;SDS011;59609;52.430;4.668;2023-04-06T01:50:48;18.92;;;9.55;;
71777;SDS011;59609;52.430;4.668;2023-04-06T01:53:14;18.48;;;9.75;;
71777;SDS011;59609;52.430;4.668;2023-04-06T01:55:40;17.52;;;9.95;;
71777;SDS011;59609;52.430;4.668;2023-04-06T01:58:09;20.92;;;9.95;;
71777;SDS011;59609;52.430;4.668;2023-04-06T02:00:34;18.13;;;9.55;;
71777;SDS011;59609;52.430;4.668;2023-04-06T02:03:00;19.60;;;9.05;;
71777;SDS011;59609;52.430;4.668;2023-04-06T02:05:25;19.55;;;8.73;;
71777;SDS011;59609;52.430;4.668;2023-04-06T02:07:51;18.58;;;9.10;;
71777;SDS011;59609;52.430;4.668;2023-04-06T02:10:17;15.55;;;7.22;;
71777;SDS011;59609;52.430;4.668;2023-04-06T02:12:42;13.60;;;7.65;;
71777;SDS011;59609;52.430;4.668;2023-04-06T02:15:08;15.07;;;7.05;;
71777;SDS011;59609;52.430;4.668;2023-04-06T02:17:34;15.23;;;8.00;;
71777;SDS011;59609;52.430;4.668;2023-04-06T02:19:59;16.48;;;8.32;;
71777;SDS011;59609;52.430;4.668;2023-04-06T02:22:25;14.00;;;6.78;;
71777;SDS011;59609;52.430;4.668;2023-04-06T02:24:50;12.90;;;7.15;;
71777;SDS011;59609;52.430;4.668;2023-04-06T02:27:15;13.05;;;7.20;;
71777;SDS011;59609;52.430;4.668;2023-04-06T02:29:41;14.63;;;7.65;;
71777;SDS011;59609;52.430;4.668;2023-04-06T02:32:06;13.55;;;7.75;;
71777;SDS011;59609;52.430;4.668;2023-04-06T02:34:32;14.43;;;8.05;;
71777;SDS011;59609;52.430;4.668;2023-04-06T02:36:57;14.15;;;7.85;;
71777;SDS011;59609;52.430;4.668;2023-04-06T02:39:22;15.38;;;7.88;;
71777;SDS011;59609;52.430;4.668;2023-04-06T02:41:48;16.80;;;8.00;;
71777;SDS011;59609;52.430;4.668;2023-04-06T02:44:13;15.05;;;7.72;;
71777;SDS011;59609;52.430;4.668;2023-04-06T02:46:39;21.80;;;8.40;;
71777;SDS011;59609;52.430;4.668;2023-04-06T02:49:05;14.68;;;7.28;;
71777;SDS011;59609;52.430;4.668;2023-04-06T02:51:30;13.70;;;7.65;;
71777;SDS011;59609;52.430;4.668;2023-04-06T02:53:55;15.07;;;7.80;;
71777;SDS011;59609;52.430;4.668;2023-04-06T02:56:21;16.40;;;7.80;;
71777;SDS011;59609;52.430;4.668;2023-04-06T02:58:46;14.10;;;7.70;;
71777;SDS011;59609;52.430;4.668;2023-04-06T03:01:12;14.38;;;7.93;;
71777;SDS011;59609;52.430;4.668;2023-04-06T03:03:37;14.55;;;7.75;;
71777;SDS011;59609;52.430;4.668;2023-04-06T03:06:03;13.50;;;6.70;;
71777;SDS011;59609;52.430;4.668;2023-04-06T03:08:28;16.67;;;7.35;;
71777;SDS011;59609;52.430;4.668;2023-04-06T03:10:54;16.00;;;7.93;;
71777;SDS011;59609;52.430;4.668;2023-04-06T03:13:20;15.15;;;8.38;;
71777;SDS011;59609;52.430;4.668;2023-04-06T03:15:45;18.17;;;7.90;;
71777;SDS011;59609;52.430;4.668;2023-04-06T03:18:11;19.17;;;9.32;;
71777;SDS011;59609;52.430;4.668;2023-04-06T03:20:36;17.52;;;9.48;;
71777;SDS011;59609;52.430;4.668;2023-04-06T03:23:01;21.30;;;10.18;;
71777;SDS011;59609;52.430;4.668;2023-04-06T03:25:27;22.98;;;10.07;;
71777;SDS011;59609;52.430;4.668;2023-04-06T03:27:52;22.88;;;11.85;;
71777;SDS011;59609;52.430;4.668;2023-04-06T03:30:17;23.48;;;11.80;;
71777;SDS011;59609;52.430;4.668;2023-04-06T03:32:43;22.70;;;11.88;;
71777;SDS011;59609;52.430;4.668;2023-04-06T03:35:09;23.52;;;11.52;;
71777;SDS011;59609;52.430;4.668;2023-04-06T03:37:35;24.90;;;12.15;;
71777;SDS011;59609;52.430;4.668;2023-04-06T03:40:00;21.95;;;10.95;;
71777;SDS011;59609;52.430;4.668;2023-04-06T03:42:26;26.98;;;12.02;;
71777;SDS011;59609;52.430;4.668;2023-04-06T03:44:51;23.17;;;9.68;;
71777;SDS011;59609;52.430;4.668;2023-04-06T03:47:17;26.35;;;11.90;;
71777;SDS011;59609;52.430;4.668;2023-04-06T03:49:42;25.92;;;11.75;;
71777;SDS011;59609;52.430;4.668;2023-04-06T03:52:07;26.65;;;12.05;;
71777;SDS011;59609;52.430;4.668;2023-04-06T03:54:33;27.38;;;11.80;;
71777;SDS011;59609;52.430;4.668;2023-04-06T03:56:58;22.55;;;11.35;;
71777;SDS011;59609;52.430;4.668;2023-04-06T03:59:25;21.95;;;10.32;;
71777;SDS011;59609;52.430;4.668;2023-04-06T04:01:50;26.25;;;10.18;;
71777;SDS011;59609;52.430;4.668;2023-04-06T04:04:16;18.95;;;9.25;;
71777;SDS011;59609;52.430;4.668;2023-04-06T04:06:41;19.77;;;9.55;;
71777;SDS011;59609;52.430;4.668;2023-04-06T04:09:06;21.23;;;9.30;;
71777;SDS011;59609;52.430;4.668;2023-04-06T04:11:32;18.38;;;9.25;;
71777;SDS011;59609;52.430;4.668;2023-04-06T04:13:57;18.55;;;9.23;;
71777;SDS011;59609;52.430;4.668;2023-04-06T04:16:22;17.45;;;8.98;;
71777;SDS011;59609;52.430;4.668;2023-04-06T04:18:48;20.38;;;8.77;;
71777;SDS011;59609;52.430;4.668;2023-04-06T04:21:13;19.45;;;8.60;;
71777;SDS011;59609;52.430;4.668;2023-04-06T04:23:39;19.88;;;9.15;;
71777;SDS011;59609;52.430;4.668;2023-04-06T04:26:04;22.55;;;10.90;;
71777;SDS011;59609;52.430;4.668;2023-04-06T04:28:30;23.98;;;11.05;;
71777;SDS011;59609;52.430;4.668;2023-04-06T04:30:55;20.30;;;10.50;;
71777;SDS011;59609;52.430;4.668;2023-04-06T04:33:21;18.33;;;9.43;;
71777;SDS011;59609;52.430;4.668;2023-04-06T04:35:46;19.83;;;10.13;;
71777;SDS011;59609;52.430;4.668;2023-04-06T04:38:14;21.20;;;10.05;;
71777;SDS011;59609;52.430;4.668;2023-04-06T04:40:40;20.98;;;10.25;;
71777;SDS011;59609;52.430;4.668;2023-04-06T04:43:05;21.20;;;9.00;;
71777;SDS011;59609;52.430;4.668;2023-04-06T04:45:33;19.10;;;8.82;;
71777;SDS011;59609;52.430;4.668;2023-04-06T04:47:58;19.42;;;8.85;;
71777;SDS011;59609;52.430;4.668;2023-04-06T04:50:24;18.27;;;9.02;;
71777;SDS011;59609;52.430;4.668;2023-04-06T04:52:50;16.70;;;8.90;;
71777;SDS011;59609;52.430;4.668;2023-04-06T04:55:15;14.75;;;8.40;;
71777;SDS011;59609;52.430;4.668;2023-04-06T04:57:41;18.48;;;8.98;;
71777;SDS011;59609;52.430;4.668;2023-04-06T05:00:06;15.80;;;8.13;;
71777;SDS011;59609;52.430;4.668;2023-04-06T05:02:32;14.20;;;8.43;;
71777;SDS011;59609;52.430;4.668;2023-04-06T05:04:58;19.77;;;9.15;;
71777;SDS011;59609;52.430;4.668;2023-04-06T05:07:23;20.48;;;9.70;;
71777;SDS011;59609;52.430;4.668;2023-04-06T05:09:49;16.35;;;8.85;;
71777;SDS011;59609;52.430;4.668;2023-04-06T05:12:14;18.83;;;9.43;;
71777;SDS011;59609;52.430;4.668;2023-04-06T05:14:40;18.05;;;8.63;;
71777;SDS011;59609;52.430;4.668;2023-04-06T05:17:05;17.42;;;8.80;;
71777;SDS011;59609;52.430;4.668;2023-04-06T05:19:30;22.13;;;9.80;;
71777;SDS011;59609;52.430;4.668;2023-04-06T05:21:56;18.08;;;8.90;;
71777;SDS011;59609;52.430;4.668;2023-04-06T05:24:21;20.83;;;9.88;;
71777;SDS011;59609;52.430;4.668;2023-04-06T05:26:47;17.75;;;9.65;;
71777;SDS011;59609;52.430;4.668;2023-04-06T05:29:13;18.48;;;9.35;;
71777;SDS011;59609;52.430;4.668;2023-04-06T05:31:39;19.63;;;10.02;;
71777;SDS011;59609;52.430;4.668;2023-04-06T05:34:05;20.90;;;10.13;;
71777;SDS011;59609;52.430;4.668;2023-04-06T05:36:30;17.70;;;9.45;;
71777;SDS011;59609;52.430;4.668;2023-04-06T05:38:57;18.88;;;9.73;;
71777;SDS011;59609;52.430;4.668;2023-04-06T05:41:23;26.10;;;9.82;;
71777;SDS011;59609;52.430;4.668;2023-04-06T05:43:48;21.00;;;10.38;;
71777;SDS011;59609;52.430;4.668;2023-04-06T05:46:14;22.40;;;10.02;;
71777;SDS011;59609;52.430;4.668;2023-04-06T05:48:39;20.20;;;9.88;;
71777;SDS011;59609;52.430;4.668;2023-04-06T05:51:04;19.70;;;9.60;;
71777;SDS011;59609;52.430;4.668;2023-04-06T05:53:33;21.73;;;9.50;;
71777;SDS011;59609;52.430;4.668;2023-04-06T05:56:01;19.25;;;9.02;;
71777;SDS011;59609;52.430;4.668;2023-04-06T05:58:27;18.52;;;9.63;;
71777;SDS011;59609;52.430;4.668;2023-04-06T06:01:00;23.67;;;10.98;;
71777;SDS011;59609;52.430;4.668;2023-04-06T06:03:26;19.33;;;9.27;;
71777;SDS011;59609;52.430;4.668;2023-04-06T06:05:51;20.45;;;10.75;;
71777;SDS011;59609;52.430;4.668;2023-04-06T06:08:17;20.27;;;10.70;;
71777;SDS011;59609;52.430;4.668;2023-04-06T06:10:42;22.70;;;10.65;;
71777;SDS011;59609;52.430;4.668;2023-04-06T06:13:08;18.35;;;10.82;;
71777;SDS011;59609;52.430;4.668;2023-04-06T06:15:33;23.27;;;10.15;;
71777;SDS011;59609;52.430;4.668;2023-04-06T06:17:59;18.50;;;10.90;;
71777;SDS011;59609;52.430;4.668;2023-04-06T06:20:25;20.63;;;11.52;;
71777;SDS011;59609;52.430;4.668;2023-04-06T06:22:51;18.35;;;9.90;;
71777;SDS011;59609;52.430;4.668;2023-04-06T06:25:17;21.85;;;10.82;;
71777;SDS011;59609;52.430;4.668;2023-04-06T06:27:42;22.63;;;10.82;;
71777;SDS011;59609;52.430;4.668;2023-04-06T06:30:08;22.50;;;11.90;;
71777;SDS011;59609;52.430;4.668;2023-04-06T06:32:33;23.95;;;10.55;;
71777;SDS011;59609;52.430;4.668;2023-04-06T06:34:59;26.48;;;11.85;;
71777;SDS011;59609;52.430;4.668;2023-04-06T06:37:24;21.70;;;11.45;;
71777;SDS011;59609;52.430;4.668;2023-04-06T06:39:49;20.60;;;11.45;;
71777;SDS011;59609;52.430;4.668;2023-04-06T06:42:15;25.50;;;11.40;;
71777;SDS011;59609;52.430;4.668;2023-04-06T06:44:40;22.80;;;11.77;;
71777;SDS011;59609;52.430;4.668;2023-04-06T06:47:06;25.17;;;11.70;;
71777;SDS011;59609;52.430;4.668;2023-04-06T06:49:31;26.77;;;12.88;;
71777;SDS011;59609;52.430;4.668;2023-04-06T06:51:56;20.65;;;9.43;;
71777;SDS011;59609;52.430;4.668;2023-04-06T06:54:22;24.27;;;11.70;;
71777;SDS011;59609;52.430;4.668;2023-04-06T06:56:47;21.83;;;11.88;;
71777;SDS011;59609;52.430;4.668;2023-04-06T06:59:12;23.20;;;11.63;;
71777;SDS011;59609;52.430;4.668;2023-04-06T07:01:38;23.70;;;12.25;;
71777;SDS011;59609;52.430;4.668;2023-04-06T07:04:03;25.10;;;13.02;;
71777;SDS011;59609;52.430;4.668;2023-04-06T07:06:28;23.50;;;11.25;;
71777;SDS011;59609;52.430;4.668;2023-04-06T07:08:54;26.60;;;12.35;;
71777;SDS011;59609;52.430;4.668;2023-04-06T07:11:19;22.42;;;11.40;;
71777;SDS011;59609;52.430;4.668;2023-04-06T07:13:45;26.08;;;12.73;;
71777;SDS011;59609;52.430;4.668;2023-04-06T07:16:11;26.45;;;13.20;;
71777;SDS011;59609;52.430;4.668;2023-04-06T07:18:36;23.08;;;11.65;;
71777;SDS011;59609;52.430;4.668;2023-04-06T07:21:01;24.52;;;13.23;;
71777;SDS011;59609;52.430;4.668;2023-04-06T07:23:27;24.55;;;12.90;;
71777;SDS011;59609;52.430;4.668;2023-04-06T07:25:52;24.17;;;12.48;;
71777;SDS011;59609;52.430;4.668;2023-04-06T07:28:19;24.00;;;12.88;;
71777;SDS011;59609;52.430;4.668;2023-04-06T07:30:44;27.58;;;13.88;;
71777;SDS011;59609;52.430;4.668;2023-04-06T07:33:10;25.95;;;13.20;;
71777;SDS011;59609;52.430;4.668;2023-04-06T07:35:35;28.70;;;13.90;;
71777;SDS011;59609;52.430;4.668;2023-04-06T07:38:01;28.15;;;13.65;;
71777;SDS011;59609;52.430;4.668;2023-04-06T07:40:27;26.27;;;12.35;;
71777;SDS011;59609;52.430;4.668;2023-04-06T07:42:53;27.52;;;12.57;;
71777;SDS011;59609;52.430;4.668;2023-04-06T07:45:18;24.73;;;11.85;;
71777;SDS011;59609;52.430;4.668;2023-04-06T07:47:44;28.45;;;13.75;;
71777;SDS011;59609;52.430;4.668;2023-04-06T07:50:10;25.70;;;13.98;;
71777;SDS011;59609;52.430;4.668;2023-04-06T07:52:36;29.20;;;13.25;;
71777;SDS011;59609;52.430;4.668;2023-04-06T07:55:01;29.33;;;13.05;;
71777;SDS011;59609;52.430;4.668;2023-04-06T07:57:27;29.60;;;13.57;;
71777;SDS011;59609;52.430;4.668;2023-04-06T07:59:52;28.33;;;13.85;;
71777;SDS011;59609;52.430;4.668;2023-04-06T08:02:18;27.02;;;13.68;;
71777;SDS011;59609;52.430;4.668;2023-04-06T08:04:43;32.95;;;14.45;;
71777;SDS011;59609;52.430;4.668;2023-04-06T08:07:09;24.90;;;12.45;;
71777;SDS011;59609;52.430;4.668;2023-04-06T08:09:34;32.35;;;14.23;;
71777;SDS011;59609;52.430;4.668;2023-04-06T08:12:00;30.90;;;14.55;;
71777;SDS011;59609;52.430;4.668;2023-04-06T08:14:25;28.08;;;13.95;;
71777;SDS011;59609;52.430;4.668;2023-04-06T08:16:51;26.63;;;13.48;;
71777;SDS011;59609;52.430;4.668;2023-04-06T08:19:16;29.90;;;12.95;;
71777;SDS011;59609;52.430;4.668;2023-04-06T08:21:43;29.98;;;15.70;;
71777;SDS011;59609;52.430;4.668;2023-04-06T08:24:10;34.95;;;15.30;;
71777;SDS011;59609;52.430;4.668;2023-04-06T08:26:35;28.48;;;14.65;;
71777;SDS011;59609;52.430;4.668;2023-04-06T08:29:00;25.92;;;13.15;;
71777;SDS011;59609;52.430;4.668;2023-04-06T08:31:26;28.75;;;15.75;;
71777;SDS011;59609;52.430;4.668;2023-04-06T08:33:52;28.65;;;14.77;;
71777;SDS011;59609;52.430;4.668;2023-04-06T08:36:17;27.38;;;14.52;;
71777;SDS011;59609;52.430;4.668;2023-04-06T08:38:47;31.73;;;15.15;;
71777;SDS011;59609;52.430;4.668;2023-04-06T08:41:13;28.80;;;14.75;;
71777;SDS011;59609;52.430;4.668;2023-04-06T08:43:43;29.98;;;15.23;;
71777;SDS011;59609;52.430;4.668;2023-04-06T08:46:13;28.95;;;15.02;;
71777;SDS011;59609;52.430;4.668;2023-04-06T08:48:41;27.48;;;14.32;;
71777;SDS011;59609;52.430;4.668;2023-04-06T08:51:09;28.85;;;14.30;;
71777;SDS011;59609;52.430;4.668;2023-04-06T08:53:35;28.23;;;13.05;;
71777;SDS011;59609;52.430;4.668;2023-04-06T08:56:01;26.33;;;14.05;;
71777;SDS011;59609;52.430;4.668;2023-04-06T08:58:28;27.48;;;14.65;;
71777;SDS011;59609;52.430;4.668;2023-04-06T09:00:58;27.30;;;14.23;;
71777;SDS011;59609;52.430;4.668;2023-04-06T09:03:24;37.10;;;14.82;;
71777;SDS011;59609;52.430;4.668;2023-04-06T09:05:52;25.30;;;13.93;;
71777;SDS011;59609;52.430;4.668;2023-04-06T09:08:18;25.63;;;12.60;;
71777;SDS011;59609;52.430;4.668;2023-04-06T09:10:44;27.65;;;15.02;;
71777;SDS011;59609;52.430;4.668;2023-04-06T09:13:10;26.23;;;15.13;;
71777;SDS011;59609;52.430;4.668;2023-04-06T09:15:36;28.58;;;15.80;;
71777;SDS011;59609;52.430;4.668;2023-04-06T09:18:02;28.77;;;15.23;;
71777;SDS011;59609;52.430;4.668;2023-04-06T09:20:27;21.90;;;11.23;;
71777;SDS011;59609;52.430;4.668;2023-04-06T09:22:53;29.95;;;15.35;;
71777;SDS011;59609;52.430;4.668;2023-04-06T09:25:23;29.75;;;14.65;;
71777;SDS011;59609;52.430;4.668;2023-04-06T09:28:01;32.75;;;14.45;;
71777;SDS011;59609;52.430;4.668;2023-04-06T09:30:28;30.77;;;15.25;;
71777;SDS011;59609;52.430;4.668;2023-04-06T09:32:54;28.15;;;14.50;;
71777;SDS011;59609;52.430;4.668;2023-04-06T09:35:21;30.23;;;14.80;;
71777;SDS011;59609;52.430;4.668;2023-04-06T09:37:49;21.55;;;11.63;;
71777;SDS011;59609;52.430;4.668;2023-04-06T09:40:15;21.67;;;11.23;;
71777;SDS011;59609;52.430;4.668;2023-04-06T09:42:45;28.40;;;15.85;;
71777;SDS011;59609;52.430;4.668;2023-04-06T09:45:11;28.70;;;15.15;;
71777;SDS011;59609;52.430;4.668;2023-04-06T09:47:37;29.30;;;14.40;;
71777;SDS011;59609;52.430;4.668;2023-04-06T09:50:05;28.70;;;14.35;;
71777;SDS011;59609;52.430;4.668;2023-04-06T09:52:33;18.25;;;10.25;;
71777;SDS011;59609;52.430;4.668;2023-04-06T09:55:05;20.70;;;11.52;;
71777;SDS011;59609;52.430;4.668;2023-04-06T09:57:37;21.58;;;11.48;;
71777;SDS011;59609;52.430;4.668;2023-04-06T10:00:17;17.35;;;9.73;;
71777;SDS011;59609;52.430;4.668;2023-04-06T10:02:49;20.85;;;10.85;;
71777;SDS011;59609;52.430;4.668;2023-04-06T10:08:24;17.05;;;8.70;;
71777;SDS011;59609;52.430;4.668;2023-04-06T10:10:53;8.43;;;5.57;;
71777;SDS011;59609;52.430;4.668;2023-04-06T10:13:20;15.25;;;7.80;;
71777;SDS011;59609;52.430;4.668;2023-04-06T10:15:45;12.70;;;7.22;;
71777;SDS011;59609;52.430;4.668;2023-04-06T10:18:11;11.60;;;5.97;;
71777;SDS011;59609;52.430;4.668;2023-04-06T10:20:39;7.90;;;5.07;;
71777;SDS011;59609;52.430;4.668;2023-04-06T10:23:18;11.63;;;6.85;;
71777;SDS011;59609;52.430;4.668;2023-04-06T10:25:55;14.32;;;7.00;;
71777;SDS011;59609;52.430;4.668;2023-04-06T10:28:24;13.25;;;7.82;;
71777;SDS011;59609;52.430;4.668;2023-04-06T10:30:59;10.82;;;6.63;;
71777;SDS011;59609;52.430;4.668;2023-04-06T10:33:26;11.45;;;5.82;;
71777;SDS011;59609;52.430;4.668;2023-04-06T10:35:52;12.80;;;6.50;;
71777;SDS011;59609;52.430;4.668;2023-04-06T10:38:18;12.27;;;6.22;;
71777;SDS011;59609;52.430;4.668;2023-04-06T10:40:47;13.73;;;6.40;;
71777;SDS011;59609;52.430;4.668;2023-04-06T10:43:17;13.35;;;7.13;;
71777;SDS011;59609;52.430;4.668;2023-04-06T10:45:54;12.40;;;6.60;;
71777;SDS011;59609;52.430;4.668;2023-04-06T10:48:21;12.52;;;5.90;;
71777;SDS011;59609;52.430;4.668;2023-04-06T10:50:48;11.63;;;6.43;;
71777;SDS011;59609;52.430;4.668;2023-04-06T10:53:21;10.00;;;6.20;;
71777;SDS011;59609;52.430;4.668;2023-04-06T10:55:52;10.93;;;6.45;;
71777;SDS011;59609;52.430;4.668;2023-04-06T10:58:20;7.72;;;5.35;;
71777;SDS011;59609;52.430;4.668;2023-04-06T11:00:50;12.82;;;5.32;;
71777;SDS011;59609;52.430;4.668;2023-04-06T11:03:16;9.18;;;6.03;;
71777;SDS011;59609;52.430;4.668;2023-04-06T11:05:46;11.13;;;6.70;;
71777;SDS011;59609;52.430;4.668;2023-04-06T11:08:22;11.27;;;7.32;;
71777;SDS011;59609;52.430;4.668;2023-04-06T11:10:48;11.10;;;7.03;;
71777;SDS011;59609;52.430;4.668;2023-04-06T11:13:14;10.27;;;5.70;;
71777;SDS011;59609;52.430;4.668;2023-04-06T11:15:40;13.30;;;7.10;;
71777;SDS011;59609;52.430;4.668;2023-04-06T11:18:05;10.60;;;7.18;;
71777;SDS011;59609;52.430;4.668;2023-04-06T11:20:30;10.65;;;7.63;;
71777;SDS011;59609;52.430;4.668;2023-04-06T11:22:56;10.65;;;7.20;;
71777;SDS011;59609;52.430;4.668;2023-04-06T11:25:23;11.45;;;6.95;;
71777;SDS011;59609;52.430;4.668;2023-04-06T11:27:49;9.82;;;6.75;;
71777;SDS011;59609;52.430;4.668;2023-04-06T11:30:15;10.65;;;6.57;;
71777;SDS011;59609;52.430;4.668;2023-04-06T11:32:44;14.18;;;8.88;;
71777;SDS011;59609;52.430;4.668;2023-04-06T11:35:11;12.00;;;7.85;;
71777;SDS011;59609;52.430;4.668;2023-04-06T11:37:48;12.20;;;8.00;;
71777;SDS011;59609;52.430;4.668;2023-04-06T11:40:14;12.85;;;8.02;;
71777;SDS011;59609;52.430;4.668;2023-04-06T11:42:40;11.55;;;7.20;;
71777;SDS011;59609;52.430;4.668;2023-04-06T11:45:06;15.38;;;8.60;;
71777;SDS011;59609;52.430;4.668;2023-04-06T11:47:33;8.15;;;5.50;;
71777;SDS011;59609;52.430;4.668;2023-04-06T11:50:07;12.77;;;8.10;;
71777;SDS011;59609;52.430;4.668;2023-04-06T11:52:42;9.57;;;7.25;;
71777;SDS011;59609;52.430;4.668;2023-04-06T11:55:11;9.13;;;6.55;;
71777;SDS011;59609;52.430;4.668;2023-04-06T11:57:38;12.13;;;8.50;;
71777;SDS011;59609;52.430;4.668;2023-04-06T12:00:03;11.70;;;6.93;;
71777;SDS011;59609;52.430;4.668;2023-04-06T12:02:29;11.75;;;8.23;;
71777;SDS011;59609;52.430;4.668;2023-04-06T12:04:57;16.33;;;7.80;;
71777;SDS011;59609;52.430;4.668;2023-04-06T12:07:22;11.27;;;7.88;;
71777;SDS011;59609;52.430;4.668;2023-04-06T12:09:47;12.63;;;8.07;;
71777;SDS011;59609;52.430;4.668;2023-04-06T12:12:13;12.45;;;7.07;;
71777;SDS011;59609;52.430;4.668;2023-04-06T12:14:38;14.13;;;8.98;;
71777;SDS011;59609;52.430;4.668;2023-04-06T12:17:03;11.77;;;8.52;;
71777;SDS011;59609;52.430;4.668;2023-04-06T12:19:29;11.00;;;7.78;;
71777;SDS011;59609;52.430;4.668;2023-04-06T12:21:54;13.77;;;9.02;;
71777;SDS011;59609;52.430;4.668;2023-04-06T12:24:21;12.68;;;8.27;;
71777;SDS011;59609;52.430;4.668;2023-04-06T12:26:47;17.65;;;9.57;;
71777;SDS011;59609;52.430;4.668;2023-04-06T12:29:12;14.40;;;9.60;;
71777;SDS011;59609;52.430;4.668;2023-04-06T12:31:38;11.88;;;8.18;;
71777;SDS011;59609;52.430;4.668;2023-04-06T12:34:05;12.70;;;8.38;;
71777;SDS011;59609;52.430;4.668;2023-04-06T12:36:34;12.45;;;8.15;;
71777;SDS011;59609;52.430;4.668;2023-04-06T12:39:00;12.65;;;7.93;;
71777;SDS011;59609;52.430;4.668;2023-04-06T12:41:26;18.23;;;9.60;;
71777;SDS011;59609;52.430;4.668;2023-04-06T12:43:52;14.75;;;9.18;;
71777;SDS011;59609;52.430;4.668;2023-04-06T12:46:17;16.40;;;10.30;;
71777;SDS011;59609;52.430;4.668;2023-04-06T12:48:43;16.42;;;9.48;;
71777;SDS011;59609;52.430;4.668;2023-04-06T12:51:08;13.40;;;8.27;;
71777;SDS011;59609;52.430;4.668;2023-04-06T12:53:34;13.23;;;9.23;;
71777;SDS011;59609;52.430;4.668;2023-04-06T12:56:00;12.65;;;9.27;;
71777;SDS011;59609;52.430;4.668;2023-04-06T12:58:26;15.63;;;8.65;;
71777;SDS011;59609;52.430;4.668;2023-04-06T13:00:52;11.52;;;9.10;;
71777;SDS011;59609;52.430;4.668;2023-04-06T13:03:20;15.70;;;9.85;;
71777;SDS011;59609;52.430;4.668;2023-04-06T13:05:47;14.43;;;9.75;;
71777;SDS011;59609;52.430;4.668;2023-04-06T13:08:14;13.05;;;10.18;;
71777;SDS011;59609;52.430;4.668;2023-04-06T13:10:49;10.88;;;8.20;;
71777;SDS011;59609;52.430;4.668;2023-04-06T13:13:17;11.07;;;9.63;;
71777;SDS011;59609;52.430;4.668;2023-04-06T13:15:46;8.65;;;7.72;;
71777;SDS011;59609;52.430;4.668;2023-04-06T13:18:11;14.15;;;9.48;;
71777;SDS011;59609;52.430;4.668;2023-04-06T13:20:36;13.57;;;9.57;;
71777;SDS011;59609;52.430;4.668;2023-04-06T13:23:02;13.77;;;9.63;;
71777;SDS011;59609;52.430;4.668;2023-04-06T13:25:27;13.82;;;9.80;;
71777;SDS011;59609;52.430;4.668;2023-04-06T13:27:57;14.00;;;9.32;;
71777;SDS011;59609;52.430;4.668;2023-04-06T13:30:23;14.80;;;11.25;;
71777;SDS011;59609;52.430;4.668;2023-04-06T13:32:50;14.23;;;10.20;;
71777;SDS011;59609;52.430;4.668;2023-04-06T13:35:16;16.15;;;10.25;;
71777;SDS011;59609;52.430;4.668;2023-04-06T13:37:42;15.45;;;11.25;;
71777;SDS011;59609;52.430;4.668;2023-04-06T13:40:08;15.95;;;10.27;;
71777;SDS011;59609;52.430;4.668;2023-04-06T13:42:34;15.27;;;11.05;;
71777;SDS011;59609;52.430;4.668;2023-04-06T13:45:07;16.77;;;11.52;;
71777;SDS011;59609;52.430;4.668;2023-04-06T13:47:32;13.60;;;10.98;;
71777;SDS011;59609;52.430;4.668;2023-04-06T13:49:58;17.38;;;12.02;;
71777;SDS011;59609;52.430;4.668;2023-04-06T13:52:23;13.82;;;10.40;;
71777;SDS011;59609;52.430;4.668;2023-04-06T13:54:49;17.25;;;11.65;;
71777;SDS011;59609;52.430;4.668;2023-04-06T13:57:15;12.52;;;10.05;;
71777;SDS011;59609;52.430;4.668;2023-04-06T13:59:40;14.23;;;10.25;;
71777;SDS011;59609;52.430;4.668;2023-04-06T14:02:06;14.18;;;9.82;;
71777;SDS011;59609;52.430;4.668;2023-04-06T14:04:33;17.42;;;10.73;;
71777;SDS011;59609;52.430;4.668;2023-04-06T14:06:59;16.85;;;11.68;;
71777;SDS011;59609;52.430;4.668;2023-04-06T14:09:26;17.40;;;11.75;;
71777;SDS011;59609;52.430;4.668;2023-04-06T14:11:52;16.48;;;11.90;;
71777;SDS011;59609;52.430;4.668;2023-04-06T14:14:18;16.33;;;11.90;;
71777;SDS011;59609;52.430;4.668;2023-04-06T14:16:44;13.25;;;10.63;;
71777;SDS011;59609;52.430;4.668;2023-04-06T14:19:10;18.10;;;12.02;;
71777;SDS011;59609;52.430;4.668;2023-04-06T14:21:39;16.30;;;10.90;;
71777;SDS011;59609;52.430;4.668;2023-04-06T14:24:06;15.60;;;10.68;;
71777;SDS011;59609;52.430;4.668;2023-04-06T14:26:32;16.02;;;11.07;;